HJFA4: James Fork nr Hackett 2S

                                SHEF ID:       HJFA4     James Fork nr Hackett 2S
STATION TYPE:

STAGE RIV-FLOW BAT-LOAD
ft cfs volt
Ccp-Rev Ccp-Rev Ccp-Rev
(America/Chicago)
04/29 00:00 8.44 757 12.50
04/29 01:00 9.45 960 12.48
04/29 02:00 10.51 1190 12.47
04/29 03:00 11.12 1330 12.44
04/29 04:00 11.34 1382 12.42
04/29 05:00 11.27 1365 12.39
04/29 06:00 10.99 1300 12.36
04/29 07:00 10.57 1204 12.33
04/29 08:00 10.09 1098 12.50
04/29 09:00 9.62 996 13.05
04/29 10:00 9.16 900 13.14
04/29 11:00 8.75 818 13.13
04/29 12:00 8.40 750 13.16
04/29 13:00 8.10 692 13.01
04/29 14:00 7.85 641 ----
04/29 15:00 7.63 597 12.94
04/29 16:00 7.46 565 12.94
04/29 17:00 7.29 537 12.88
04/29 18:00 7.14 512 12.86
04/29 19:00 7.02 493 12.84
04/29 20:00 6.91 476 12.70
04/29 21:00 6.81 461 12.61
04/29 22:00 6.71 447 12.57
04/29 23:00 6.60 431 12.56
Data processed at Thu 30Apr2026 04:35 GMT

NOTICE: If you are parsing this page

Please convert to using our Data API. Starting early 2026 we will be migrating to: https://water.usace.army.mil with modern pages rendered in JavaScript. When this migration completes you will no longer be able to scrape this page! CWMSDataAPI (CDA)

Timeseries IDs (TSIDs)

TSIDs used from left to right in the data table
HACK.Stage.Inst.1Hour.0.Ccp-Rev
HACK.Flow.Inst.1Hour.0.Ccp-Rev
HACK.Volt-Battery Load.Inst.1Hour.0.Ccp-Rev

                            

All information presented herein is the property of the government of the United States of America and may be revised or deleted at any time without prior notice. Dissemination of this information without the expressed written consent of the Public Affairs Office, Tulsa District U.S. Army Corps of Engineers is strictly prohibited. These data are gathered electronically and, as presented, have NOT undergone any form of quality control. These data are NOT guaranteed to be valid or correct.